createdAt,value
2023-03-23T15:59:56.099Z,4.50
2023-03-23T16:03:02.597Z,3.30
2023-03-23T16:06:05.936Z,2.70
2023-03-23T16:09:16.197Z,3.10
2023-03-23T16:12:21.903Z,4.10
2023-03-23T16:15:24.779Z,3.90
2023-03-23T16:18:27.517Z,4.90
2023-03-23T16:21:30.695Z,4.40
2023-03-23T16:24:33.721Z,4.40
2023-03-23T16:27:37.067Z,3.20
2023-03-23T16:30:42.602Z,2.70
2023-03-23T16:33:45.402Z,2.50
2023-03-23T16:36:48.230Z,4.20
2023-03-23T16:39:51.070Z,2.90
2023-03-23T16:42:54.528Z,3.70
2023-03-23T16:45:58.205Z,4.40
2023-03-23T16:49:01.072Z,4.70
2023-03-23T16:52:03.975Z,2.70
2023-03-23T16:55:07.870Z,4.50
2023-03-23T16:58:16.888Z,4.60
2023-03-23T17:01:20.230Z,2.90
2023-03-23T17:04:24.806Z,4.00
2023-03-23T17:07:28.482Z,4.90
2023-03-23T17:10:32.266Z,4.80
2023-03-23T17:13:38.468Z,4.90
2023-03-23T17:16:41.669Z,5.40
2023-03-23T17:19:44.575Z,4.20
2023-03-23T17:22:48.278Z,5.40
2023-03-23T17:25:51.732Z,5.50
2023-03-23T17:28:54.585Z,4.80
2023-03-23T17:31:57.531Z,4.20
2023-03-23T17:35:00.758Z,4.70
2023-03-23T17:38:03.738Z,5.30
2023-03-23T17:41:08.212Z,4.20
2023-03-23T17:44:11.265Z,5.20
2023-03-23T17:47:14.263Z,4.50
2023-03-23T17:50:17.647Z,3.80
2023-03-23T17:53:20.613Z,4.80
2023-03-23T17:56:23.451Z,4.30
2023-03-23T17:59:27.567Z,4.60
2023-03-23T18:02:30.514Z,5.40
2023-03-23T18:05:34.737Z,4.40
2023-03-23T18:08:38.374Z,4.60
2023-03-23T18:11:42.310Z,4.80
2023-03-23T18:14:45.207Z,4.90
2023-03-23T18:17:50.674Z,3.10
2023-03-23T18:23:59.874Z,3.80
2023-03-23T18:27:05.988Z,4.00
2023-03-23T18:30:10.728Z,3.80
2023-03-23T18:33:13.605Z,4.40
2023-03-23T18:36:19.597Z,2.50
2023-03-23T18:39:22.661Z,3.10
2023-03-23T18:42:28.373Z,3.60
2023-03-23T18:45:31.327Z,3.10
2023-03-23T18:48:40.693Z,4.00
2023-03-23T18:51:43.615Z,4.30
2023-03-23T18:54:46.634Z,4.00
2023-03-23T18:57:50.323Z,3.30
2023-03-23T19:00:57.330Z,4.80
2023-03-23T19:04:00.430Z,4.70
2023-03-23T19:07:03.626Z,3.90
2023-03-23T19:10:09.904Z,4.60
2023-03-23T19:13:13.634Z,3.50
2023-03-23T19:16:16.523Z,4.80
2023-03-23T19:19:20.294Z,4.00
2023-03-23T19:22:23.504Z,4.10
2023-03-23T19:25:26.988Z,4.30
2023-03-23T19:31:35.995Z,4.30
2023-03-23T19:34:39.582Z,4.10
2023-03-23T19:37:42.685Z,3.60
2023-03-23T19:41:03.892Z,3.80
2023-03-23T19:44:08.679Z,4.30
2023-03-23T19:47:11.791Z,4.80
2023-03-23T19:50:14.759Z,4.90
2023-03-23T19:53:19.229Z,5.90
2023-03-23T19:56:22.776Z,4.30
2023-03-23T19:59:26.381Z,4.60
2023-03-23T20:02:29.285Z,3.60
2023-03-23T20:05:35.100Z,4.00
2023-03-23T20:08:43.347Z,3.80
2023-03-23T20:11:50.050Z,3.70
2023-03-23T20:14:53.334Z,4.40
2023-03-23T20:17:57.986Z,3.60
2023-03-23T20:21:06.822Z,2.80
2023-03-23T20:24:09.782Z,3.80
2023-03-23T20:27:17.522Z,3.90
2023-03-23T20:30:20.709Z,2.80
2023-03-23T20:33:23.620Z,3.40
2023-03-23T20:36:29.937Z,3.50
2023-03-23T20:39:33.782Z,3.90
2023-03-23T20:42:37.277Z,3.30
2023-03-23T20:45:40.137Z,3.10
2023-03-23T20:48:43.091Z,3.00
2023-03-23T20:51:46.772Z,3.30
2023-03-23T20:54:50.941Z,3.20
2023-03-23T20:57:53.830Z,3.00
2023-03-23T21:00:58.566Z,2.70
2023-03-23T21:04:03.276Z,3.50
2023-03-23T21:07:06.415Z,3.30
2023-03-23T21:10:09.339Z,3.80
2023-03-23T21:13:13.653Z,3.30
2023-03-23T21:16:21.788Z,3.40
2023-03-23T21:19:25.033Z,3.80
2023-03-23T21:22:29.144Z,4.00
2023-03-23T21:25:35.423Z,3.90
2023-03-23T21:28:38.433Z,4.10
2023-03-23T21:31:41.955Z,4.80
2023-03-23T21:34:47.526Z,4.50
2023-03-23T21:37:50.577Z,4.00
2023-03-23T21:41:01.735Z,3.40
2023-03-23T21:44:05.614Z,6.10
2023-03-23T21:47:10.935Z,6.70
2023-03-23T21:50:14.770Z,5.60
2023-03-23T21:53:18.723Z,5.60
2023-03-23T21:56:24.454Z,4.60
2023-03-23T22:02:32.312Z,5.60
2023-03-23T22:05:39.965Z,5.60
2023-03-23T22:08:44.736Z,5.30
2023-03-23T22:11:47.802Z,5.60
2023-03-23T22:14:50.797Z,5.60
2023-03-23T22:17:55.300Z,4.90
2023-03-23T22:20:59.128Z,4.50
2023-03-23T22:24:02.363Z,8.20
2023-03-23T22:27:05.382Z,5.30
2023-03-23T22:30:13.679Z,6.00
2023-03-23T22:33:18.002Z,5.90
2023-03-23T22:36:28.024Z,5.40
2023-03-23T22:39:31.762Z,4.50
2023-03-23T22:42:34.959Z,5.10
2023-03-23T22:45:41.244Z,5.20
2023-03-23T22:48:46.305Z,5.80
2023-03-23T22:51:50.230Z,6.40
2023-03-23T22:54:53.674Z,5.80
2023-03-23T22:57:56.752Z,5.70
2023-03-23T23:01:06.309Z,7.30
2023-03-23T23:04:09.605Z,6.00
2023-03-23T23:07:14.382Z,5.50
2023-03-23T23:10:17.463Z,5.30
2023-03-23T23:13:20.718Z,5.20
2023-03-23T23:16:26.469Z,5.30
2023-03-23T23:22:32.937Z,4.70
2023-03-23T23:25:36.921Z,4.20
2023-03-23T23:28:40.532Z,4.20
2023-03-23T23:31:43.999Z,4.70
2023-03-23T23:34:46.936Z,4.60
2023-03-23T23:37:50.459Z,5.10
2023-03-23T23:40:53.668Z,4.40
2023-03-23T23:43:56.800Z,4.40
2023-03-23T23:46:59.701Z,5.40
2023-03-23T23:50:04.149Z,5.60
2023-03-23T23:53:09.984Z,5.10
2023-03-23T23:56:14.053Z,4.50
2023-03-23T23:59:17.496Z,4.90
